sensor_id;sensor_type;location;lat;lon;timestamp;P1;durP1;ratioP1;P2;durP2;ratioP2
61709;SDS011;47633;51.494;5.386;2022-08-19T00:02:08;7.10;;;6.20;;
61709;SDS011;47633;51.494;5.386;2022-08-19T00:04:34;7.40;;;6.20;;
61709;SDS011;47633;51.494;5.386;2022-08-19T00:07:01;6.70;;;6.00;;
61709;SDS011;47633;51.494;5.386;2022-08-19T00:09:28;7.15;;;5.60;;
61709;SDS011;47633;51.494;5.386;2022-08-19T00:11:54;6.60;;;5.90;;
61709;SDS011;47633;51.494;5.386;2022-08-19T00:14:21;7.07;;;6.07;;
61709;SDS011;47633;51.494;5.386;2022-08-19T00:16:48;6.72;;;5.85;;
61709;SDS011;47633;51.494;5.386;2022-08-19T00:19:16;6.78;;;6.10;;
61709;SDS011;47633;51.494;5.386;2022-08-19T00:21:42;6.72;;;6.05;;
61709;SDS011;47633;51.494;5.386;2022-08-19T00:24:08;7.00;;;6.25;;
61709;SDS011;47633;51.494;5.386;2022-08-19T00:26:35;6.43;;;5.72;;
61709;SDS011;47633;51.494;5.386;2022-08-19T00:29:01;7.85;;;6.40;;
61709;SDS011;47633;51.494;5.386;2022-08-19T00:31:26;6.75;;;6.05;;
61709;SDS011;47633;51.494;5.386;2022-08-19T00:33:52;7.95;;;6.35;;
61709;SDS011;47633;51.494;5.386;2022-08-19T00:36:18;7.07;;;6.38;;
61709;SDS011;47633;51.494;5.386;2022-08-19T00:38:43;7.15;;;6.45;;
61709;SDS011;47633;51.494;5.386;2022-08-19T00:41:10;7.05;;;6.35;;
61709;SDS011;47633;51.494;5.386;2022-08-19T00:43:39;7.93;;;6.05;;
61709;SDS011;47633;51.494;5.386;2022-08-19T00:46:05;7.47;;;6.28;;
61709;SDS011;47633;51.494;5.386;2022-08-19T00:48:31;6.70;;;6.00;;
61709;SDS011;47633;51.494;5.386;2022-08-19T00:50:58;7.25;;;6.55;;
61709;SDS011;47633;51.494;5.386;2022-08-19T00:53:26;7.07;;;5.90;;
61709;SDS011;47633;51.494;5.386;2022-08-19T00:55:54;7.57;;;6.22;;
61709;SDS011;47633;51.494;5.386;2022-08-19T00:58:24;6.15;;;5.53;;
61709;SDS011;47633;51.494;5.386;2022-08-19T01:00:52;6.25;;;5.60;;
61709;SDS011;47633;51.494;5.386;2022-08-19T01:03:19;6.32;;;5.63;;
61709;SDS011;47633;51.494;5.386;2022-08-19T01:05:46;7.03;;;6.15;;
61709;SDS011;47633;51.494;5.386;2022-08-19T01:08:14;6.95;;;6.18;;
61709;SDS011;47633;51.494;5.386;2022-08-19T01:10:42;6.45;;;5.55;;
61709;SDS011;47633;51.494;5.386;2022-08-19T01:13:10;6.45;;;5.55;;
61709;SDS011;47633;51.494;5.386;2022-08-19T01:15:41;6.22;;;5.63;;
61709;SDS011;47633;51.494;5.386;2022-08-19T01:18:12;7.50;;;6.10;;
61709;SDS011;47633;51.494;5.386;2022-08-19T01:20:40;6.72;;;5.80;;
61709;SDS011;47633;51.494;5.386;2022-08-19T01:23:07;8.45;;;6.15;;
61709;SDS011;47633;51.494;5.386;2022-08-19T01:25:40;6.20;;;5.43;;
61709;SDS011;47633;51.494;5.386;2022-08-19T01:28:14;6.60;;;5.53;;
61709;SDS011;47633;51.494;5.386;2022-08-19T01:30:42;6.50;;;5.45;;
61709;SDS011;47633;51.494;5.386;2022-08-19T01:33:08;6.55;;;5.53;;
61709;SDS011;47633;51.494;5.386;2022-08-19T01:35:34;7.70;;;6.10;;
61709;SDS011;47633;51.494;5.386;2022-08-19T01:38:01;6.90;;;6.00;;
61709;SDS011;47633;51.494;5.386;2022-08-19T01:40:32;7.80;;;6.35;;
61709;SDS011;47633;51.494;5.386;2022-08-19T01:43:00;7.45;;;5.82;;
61709;SDS011;47633;51.494;5.386;2022-08-19T01:45:27;6.43;;;5.55;;
61709;SDS011;47633;51.494;5.386;2022-08-19T01:47:55;7.00;;;5.65;;
61709;SDS011;47633;51.494;5.386;2022-08-19T01:50:21;7.45;;;5.63;;
61709;SDS011;47633;51.494;5.386;2022-08-19T01:52:46;7.60;;;5.82;;
61709;SDS011;47633;51.494;5.386;2022-08-19T01:55:14;6.82;;;5.85;;
61709;SDS011;47633;51.494;5.386;2022-08-19T01:57:41;6.22;;;5.63;;
61709;SDS011;47633;51.494;5.386;2022-08-19T02:00:11;7.28;;;6.28;;
61709;SDS011;47633;51.494;5.386;2022-08-19T02:02:40;8.65;;;6.35;;
61709;SDS011;47633;51.494;5.386;2022-08-19T02:05:05;7.00;;;6.15;;
61709;SDS011;47633;51.494;5.386;2022-08-19T02:07:32;7.90;;;5.65;;
61709;SDS011;47633;51.494;5.386;2022-08-19T02:10:02;7.22;;;6.05;;
61709;SDS011;47633;51.494;5.386;2022-08-19T02:12:29;6.93;;;6.05;;
61709;SDS011;47633;51.494;5.386;2022-08-19T02:14:54;6.87;;;5.93;;
61709;SDS011;47633;51.494;5.386;2022-08-19T02:17:19;7.83;;;6.17;;
61709;SDS011;47633;51.494;5.386;2022-08-19T02:19:45;7.03;;;5.80;;
61709;SDS011;47633;51.494;5.386;2022-08-19T02:22:10;8.27;;;6.50;;
61709;SDS011;47633;51.494;5.386;2022-08-19T02:24:36;7.38;;;6.25;;
61709;SDS011;47633;51.494;5.386;2022-08-19T02:27:01;7.88;;;6.63;;
61709;SDS011;47633;51.494;5.386;2022-08-19T02:29:26;7.20;;;6.45;;
61709;SDS011;47633;51.494;5.386;2022-08-19T02:31:52;7.30;;;6.30;;
61709;SDS011;47633;51.494;5.386;2022-08-19T02:34:17;7.60;;;6.68;;
61709;SDS011;47633;51.494;5.386;2022-08-19T02:36:43;8.53;;;6.50;;
61709;SDS011;47633;51.494;5.386;2022-08-19T02:39:08;7.78;;;6.20;;
61709;SDS011;47633;51.494;5.386;2022-08-19T02:41:34;7.90;;;5.70;;
61709;SDS011;47633;51.494;5.386;2022-08-19T02:44:00;8.10;;;5.93;;
61709;SDS011;47633;51.494;5.386;2022-08-19T02:46:29;7.68;;;6.05;;
61709;SDS011;47633;51.494;5.386;2022-08-19T02:48:57;6.80;;;6.03;;
61709;SDS011;47633;51.494;5.386;2022-08-19T02:51:31;7.22;;;6.20;;
61709;SDS011;47633;51.494;5.386;2022-08-19T02:53:59;7.05;;;5.75;;
61709;SDS011;47633;51.494;5.386;2022-08-19T02:56:26;7.68;;;6.57;;
61709;SDS011;47633;51.494;5.386;2022-08-19T02:58:52;7.43;;;6.05;;
61709;SDS011;47633;51.494;5.386;2022-08-19T03:01:19;7.20;;;6.15;;
61709;SDS011;47633;51.494;5.386;2022-08-19T03:03:46;7.65;;;6.18;;
61709;SDS011;47633;51.494;5.386;2022-08-19T03:06:12;8.43;;;6.50;;
61709;SDS011;47633;51.494;5.386;2022-08-19T03:08:41;6.45;;;5.60;;
61709;SDS011;47633;51.494;5.386;2022-08-19T03:11:12;8.18;;;6.00;;
61709;SDS011;47633;51.494;5.386;2022-08-19T03:13:39;8.23;;;6.60;;
61709;SDS011;47633;51.494;5.386;2022-08-19T03:16:05;9.38;;;6.20;;
61709;SDS011;47633;51.494;5.386;2022-08-19T03:18:30;6.85;;;6.15;;
61709;SDS011;47633;51.494;5.386;2022-08-19T03:20:56;6.97;;;6.28;;
61709;SDS011;47633;51.494;5.386;2022-08-19T03:23:21;8.40;;;6.78;;
61709;SDS011;47633;51.494;5.386;2022-08-19T03:25:48;8.32;;;6.60;;
61709;SDS011;47633;51.494;5.386;2022-08-19T03:28:15;8.95;;;6.63;;
61709;SDS011;47633;51.494;5.386;2022-08-19T03:30:41;7.35;;;6.28;;
61709;SDS011;47633;51.494;5.386;2022-08-19T03:33:08;8.65;;;7.00;;
61709;SDS011;47633;51.494;5.386;2022-08-19T03:35:35;7.57;;;6.35;;
61709;SDS011;47633;51.494;5.386;2022-08-19T03:38:04;7.45;;;6.60;;
61709;SDS011;47633;51.494;5.386;2022-08-19T03:40:31;8.23;;;6.75;;
61709;SDS011;47633;51.494;5.386;2022-08-19T03:42:56;7.30;;;6.40;;
61709;SDS011;47633;51.494;5.386;2022-08-19T03:45:22;7.97;;;6.60;;
61709;SDS011;47633;51.494;5.386;2022-08-19T03:47:48;8.02;;;7.00;;
61709;SDS011;47633;51.494;5.386;2022-08-19T03:50:13;8.00;;;6.97;;
61709;SDS011;47633;51.494;5.386;2022-08-19T03:52:39;9.40;;;7.40;;
61709;SDS011;47633;51.494;5.386;2022-08-19T03:55:04;9.55;;;6.72;;
61709;SDS011;47633;51.494;5.386;2022-08-19T03:57:30;8.90;;;7.05;;
61709;SDS011;47633;51.494;5.386;2022-08-19T03:59:55;7.70;;;6.67;;
61709;SDS011;47633;51.494;5.386;2022-08-19T04:02:21;8.10;;;6.38;;
61709;SDS011;47633;51.494;5.386;2022-08-19T04:04:46;8.77;;;6.70;;
61709;SDS011;47633;51.494;5.386;2022-08-19T04:07:13;8.23;;;7.15;;
61709;SDS011;47633;51.494;5.386;2022-08-19T04:12:11;7.70;;;6.90;;
61709;SDS011;47633;51.494;5.386;2022-08-19T04:14:36;8.68;;;6.75;;
61709;SDS011;47633;51.494;5.386;2022-08-19T04:17:02;7.97;;;7.15;;
61709;SDS011;47633;51.494;5.386;2022-08-19T04:19:32;8.77;;;6.88;;
61709;SDS011;47633;51.494;5.386;2022-08-19T04:21:59;10.02;;;7.28;;
61709;SDS011;47633;51.494;5.386;2022-08-19T04:24:24;10.65;;;7.53;;
61709;SDS011;47633;51.494;5.386;2022-08-19T04:26:50;9.48;;;7.50;;
61709;SDS011;47633;51.494;5.386;2022-08-19T04:29:22;8.30;;;7.28;;
61709;SDS011;47633;51.494;5.386;2022-08-19T04:34:16;8.68;;;6.82;;
61709;SDS011;47633;51.494;5.386;2022-08-19T04:36:44;8.50;;;7.43;;
61709;SDS011;47633;51.494;5.386;2022-08-19T04:39:11;9.73;;;8.40;;
61709;SDS011;47633;51.494;5.386;2022-08-19T04:41:42;9.90;;;7.78;;
61709;SDS011;47633;51.494;5.386;2022-08-19T04:44:26;9.35;;;8.30;;
61709;SDS011;47633;51.494;5.386;2022-08-19T04:46:55;8.45;;;7.32;;
61709;SDS011;47633;51.494;5.386;2022-08-19T04:49:21;10.85;;;8.48;;
61709;SDS011;47633;51.494;5.386;2022-08-19T04:51:47;9.35;;;7.60;;
61709;SDS011;47633;51.494;5.386;2022-08-19T04:54:14;9.55;;;7.75;;
61709;SDS011;47633;51.494;5.386;2022-08-19T04:56:40;9.63;;;7.60;;
61709;SDS011;47633;51.494;5.386;2022-08-19T04:59:06;9.90;;;8.90;;
61709;SDS011;47633;51.494;5.386;2022-08-19T05:01:33;9.50;;;7.93;;
61709;SDS011;47633;51.494;5.386;2022-08-19T05:03:59;9.35;;;8.07;;
61709;SDS011;47633;51.494;5.386;2022-08-19T05:06:26;9.52;;;8.20;;
61709;SDS011;47633;51.494;5.386;2022-08-19T05:08:52;10.02;;;8.73;;
61709;SDS011;47633;51.494;5.386;2022-08-19T05:11:19;9.43;;;8.43;;
61709;SDS011;47633;51.494;5.386;2022-08-19T05:13:47;10.23;;;8.35;;
61709;SDS011;47633;51.494;5.386;2022-08-19T05:16:14;10.02;;;7.97;;
61709;SDS011;47633;51.494;5.386;2022-08-19T05:18:42;9.52;;;8.45;;
61709;SDS011;47633;51.494;5.386;2022-08-19T05:21:26;10.50;;;8.50;;
61709;SDS011;47633;51.494;5.386;2022-08-19T05:24:11;11.15;;;9.95;;
61709;SDS011;47633;51.494;5.386;2022-08-19T05:26:38;10.07;;;9.07;;
61709;SDS011;47633;51.494;5.386;2022-08-19T05:29:04;11.43;;;9.15;;
61709;SDS011;47633;51.494;5.386;2022-08-19T05:31:32;13.82;;;10.35;;
61709;SDS011;47633;51.494;5.386;2022-08-19T05:33:57;12.65;;;9.73;;
61709;SDS011;47633;51.494;5.386;2022-08-19T05:36:24;11.50;;;9.65;;
61709;SDS011;47633;51.494;5.386;2022-08-19T05:38:54;11.77;;;9.25;;
61709;SDS011;47633;51.494;5.386;2022-08-19T05:41:20;10.48;;;9.38;;
61709;SDS011;47633;51.494;5.386;2022-08-19T05:43:52;11.88;;;9.93;;
61709;SDS011;47633;51.494;5.386;2022-08-19T05:46:18;12.68;;;11.15;;
61709;SDS011;47633;51.494;5.386;2022-08-19T05:48:44;12.85;;;11.00;;
61709;SDS011;47633;51.494;5.386;2022-08-19T05:51:10;12.73;;;10.63;;
61709;SDS011;47633;51.494;5.386;2022-08-19T05:53:36;12.65;;;10.77;;
61709;SDS011;47633;51.494;5.386;2022-08-19T05:56:08;25.42;;;22.67;;
61709;SDS011;47633;51.494;5.386;2022-08-19T05:58:37;23.75;;;19.65;;
61709;SDS011;47633;51.494;5.386;2022-08-19T06:01:03;15.95;;;13.00;;
61709;SDS011;47633;51.494;5.386;2022-08-19T06:03:34;15.43;;;10.73;;
61709;SDS011;47633;51.494;5.386;2022-08-19T06:06:02;12.40;;;10.70;;
61709;SDS011;47633;51.494;5.386;2022-08-19T06:08:28;12.43;;;10.05;;
61709;SDS011;47633;51.494;5.386;2022-08-19T06:10:53;12.32;;;10.90;;
61709;SDS011;47633;51.494;5.386;2022-08-19T06:13:19;12.77;;;10.43;;
61709;SDS011;47633;51.494;5.386;2022-08-19T06:15:45;12.35;;;9.85;;
61709;SDS011;47633;51.494;5.386;2022-08-19T06:18:11;14.13;;;10.00;;
61709;SDS011;47633;51.494;5.386;2022-08-19T06:20:37;20.30;;;15.35;;
61709;SDS011;47633;51.494;5.386;2022-08-19T06:23:02;15.63;;;13.07;;
61709;SDS011;47633;51.494;5.386;2022-08-19T06:25:28;17.20;;;11.48;;
61709;SDS011;47633;51.494;5.386;2022-08-19T06:27:53;12.43;;;10.07;;
61709;SDS011;47633;51.494;5.386;2022-08-19T06:30:18;11.80;;;9.80;;
61709;SDS011;47633;51.494;5.386;2022-08-19T06:32:44;11.65;;;9.57;;
61709;SDS011;47633;51.494;5.386;2022-08-19T06:35:09;13.40;;;9.35;;
61709;SDS011;47633;51.494;5.386;2022-08-19T06:37:36;12.85;;;10.07;;
61709;SDS011;47633;51.494;5.386;2022-08-19T06:40:02;12.63;;;9.48;;
61709;SDS011;47633;51.494;5.386;2022-08-19T06:42:28;10.63;;;8.27;;
61709;SDS011;47633;51.494;5.386;2022-08-19T06:44:54;10.57;;;8.50;;
61709;SDS011;47633;51.494;5.386;2022-08-19T06:47:20;12.40;;;8.70;;
61709;SDS011;47633;51.494;5.386;2022-08-19T06:49:46;11.23;;;8.32;;
61709;SDS011;47633;51.494;5.386;2022-08-19T06:52:12;10.98;;;8.55;;
61709;SDS011;47633;51.494;5.386;2022-08-19T06:54:38;12.15;;;9.65;;
61709;SDS011;47633;51.494;5.386;2022-08-19T06:57:04;12.25;;;8.25;;
61709;SDS011;47633;51.494;5.386;2022-08-19T06:59:31;13.18;;;9.13;;
61709;SDS011;47633;51.494;5.386;2022-08-19T07:01:58;16.85;;;12.30;;
61709;SDS011;47633;51.494;5.386;2022-08-19T07:04:27;15.00;;;11.70;;
61709;SDS011;47633;51.494;5.386;2022-08-19T07:07:03;12.20;;;9.07;;
61709;SDS011;47633;51.494;5.386;2022-08-19T07:09:34;11.75;;;8.32;;
61709;SDS011;47633;51.494;5.386;2022-08-19T07:12:02;11.27;;;8.20;;
61709;SDS011;47633;51.494;5.386;2022-08-19T07:14:29;10.07;;;7.88;;
61709;SDS011;47633;51.494;5.386;2022-08-19T07:16:55;15.77;;;8.82;;
61709;SDS011;47633;51.494;5.386;2022-08-19T07:19:22;11.13;;;8.57;;
61709;SDS011;47633;51.494;5.386;2022-08-19T07:21:51;10.00;;;7.95;;
61709;SDS011;47633;51.494;5.386;2022-08-19T07:24:17;12.18;;;7.15;;
61709;SDS011;47633;51.494;5.386;2022-08-19T07:26:44;12.10;;;8.23;;
61709;SDS011;47633;51.494;5.386;2022-08-19T07:29:10;10.85;;;7.25;;
61709;SDS011;47633;51.494;5.386;2022-08-19T07:31:36;13.07;;;7.70;;
61709;SDS011;47633;51.494;5.386;2022-08-19T07:34:06;10.40;;;6.65;;
61709;SDS011;47633;51.494;5.386;2022-08-19T07:36:36;10.90;;;7.53;;
61709;SDS011;47633;51.494;5.386;2022-08-19T07:39:04;12.18;;;8.32;;
61709;SDS011;47633;51.494;5.386;2022-08-19T07:41:32;12.35;;;7.25;;
61709;SDS011;47633;51.494;5.386;2022-08-19T07:44:01;10.20;;;6.95;;
61709;SDS011;47633;51.494;5.386;2022-08-19T07:46:30;9.77;;;7.20;;
61709;SDS011;47633;51.494;5.386;2022-08-19T07:48:56;11.15;;;7.65;;
61709;SDS011;47633;51.494;5.386;2022-08-19T07:51:22;8.82;;;7.10;;
61709;SDS011;47633;51.494;5.386;2022-08-19T07:53:48;9.88;;;7.47;;
61709;SDS011;47633;51.494;5.386;2022-08-19T07:56:15;9.98;;;7.47;;
61709;SDS011;47633;51.494;5.386;2022-08-19T07:58:42;11.43;;;8.02;;
61709;SDS011;47633;51.494;5.386;2022-08-19T08:01:11;10.18;;;7.95;;
61709;SDS011;47633;51.494;5.386;2022-08-19T08:03:38;13.57;;;8.75;;
61709;SDS011;47633;51.494;5.386;2022-08-19T08:06:23;10.23;;;8.50;;
61709;SDS011;47633;51.494;5.386;2022-08-19T08:09:07;13.30;;;9.23;;
61709;SDS011;47633;51.494;5.386;2022-08-19T08:11:37;13.85;;;9.07;;
61709;SDS011;47633;51.494;5.386;2022-08-19T08:14:04;10.48;;;8.68;;
61709;SDS011;47633;51.494;5.386;2022-08-19T08:16:31;11.00;;;9.00;;
61709;SDS011;47633;51.494;5.386;2022-08-19T08:18:59;11.93;;;10.05;;
61709;SDS011;47633;51.494;5.386;2022-08-19T08:21:25;11.35;;;9.55;;
61709;SDS011;47633;51.494;5.386;2022-08-19T08:23:50;12.55;;;10.10;;
61709;SDS011;47633;51.494;5.386;2022-08-19T08:26:17;11.32;;;9.43;;
61709;SDS011;47633;51.494;5.386;2022-08-19T08:28:42;14.20;;;10.25;;
61709;SDS011;47633;51.494;5.386;2022-08-19T08:31:07;11.10;;;9.90;;
61709;SDS011;47633;51.494;5.386;2022-08-19T08:33:33;11.32;;;10.13;;
61709;SDS011;47633;51.494;5.386;2022-08-19T08:35:59;13.38;;;10.85;;
61709;SDS011;47633;51.494;5.386;2022-08-19T08:38:24;13.32;;;10.90;;
61709;SDS011;47633;51.494;5.386;2022-08-19T08:40:57;12.10;;;10.73;;
61709;SDS011;47633;51.494;5.386;2022-08-19T08:43:52;13.48;;;10.23;;
61709;SDS011;47633;51.494;5.386;2022-08-19T08:51:42;27.15;;;19.80;;
61709;SDS011;47633;51.494;5.386;2022-08-19T08:54:13;26.20;;;21.30;;
61709;SDS011;47633;51.494;5.386;2022-08-19T08:56:42;26.75;;;21.45;;
61709;SDS011;47633;51.494;5.386;2022-08-19T08:59:12;25.40;;;20.05;;
61709;SDS011;47633;51.494;5.386;2022-08-19T09:01:48;26.95;;;21.67;;
61709;SDS011;47633;51.494;5.386;2022-08-19T09:04:13;27.58;;;22.00;;
61709;SDS011;47633;51.494;5.386;2022-08-19T09:06:40;25.27;;;21.58;;
61709;SDS011;47633;51.494;5.386;2022-08-19T09:09:35;27.75;;;22.50;;
61709;SDS011;47633;51.494;5.386;2022-08-19T09:14:58;27.90;;;23.80;;
61709;SDS011;47633;51.494;5.386;2022-08-19T09:17:27;27.08;;;23.15;;
61709;SDS011;47633;51.494;5.386;2022-08-19T09:22:23;32.17;;;24.33;;
61709;SDS011;47633;51.494;5.386;2022-08-19T09:24:52;30.42;;;23.17;;
61709;SDS011;47633;51.494;5.386;2022-08-19T09:27:21;29.45;;;24.77;;
61709;SDS011;47633;51.494;5.386;2022-08-19T09:29:49;26.98;;;22.63;;
61709;SDS011;47633;51.494;5.386;2022-08-19T09:32:15;25.88;;;21.85;;
61709;SDS011;47633;51.494;5.386;2022-08-19T09:34:42;26.17;;;22.55;;
61709;SDS011;47633;51.494;5.386;2022-08-19T09:37:08;27.10;;;23.50;;
61709;SDS011;47633;51.494;5.386;2022-08-19T09:39:33;24.85;;;22.13;;
61709;SDS011;47633;51.494;5.386;2022-08-19T09:41:59;28.27;;;23.47;;
61709;SDS011;47633;51.494;5.386;2022-08-19T09:44:24;25.53;;;21.57;;
61709;SDS011;47633;51.494;5.386;2022-08-19T09:46:49;32.35;;;23.45;;
61709;SDS011;47633;51.494;5.386;2022-08-19T09:49:16;29.90;;;24.08;;
61709;SDS011;47633;51.494;5.386;2022-08-19T09:51:43;29.33;;;22.80;;
61709;SDS011;47633;51.494;5.386;2022-08-19T09:54:08;24.48;;;20.92;;
61709;SDS011;47633;51.494;5.386;2022-08-19T09:56:33;28.65;;;22.48;;
61709;SDS011;47633;51.494;5.386;2022-08-19T09:58:59;25.45;;;21.13;;
61709;SDS011;47633;51.494;5.386;2022-08-19T10:01:30;23.98;;;20.33;;
61709;SDS011;47633;51.494;5.386;2022-08-19T10:03:57;24.20;;;19.23;;
61709;SDS011;47633;51.494;5.386;2022-08-19T10:06:27;25.27;;;20.83;;
61709;SDS011;47633;51.494;5.386;2022-08-19T10:08:58;24.70;;;18.77;;
61709;SDS011;47633;51.494;5.386;2022-08-19T10:11:24;22.52;;;17.98;;
61709;SDS011;47633;51.494;5.386;2022-08-19T10:13:50;27.25;;;21.52;;
61709;SDS011;47633;51.494;5.386;2022-08-19T10:16:17;25.08;;;19.98;;
61709;SDS011;47633;51.494;5.386;2022-08-19T10:18:46;27.17;;;21.15;;
61709;SDS011;47633;51.494;5.386;2022-08-19T10:21:13;26.45;;;20.20;;
61709;SDS011;47633;51.494;5.386;2022-08-19T10:23:42;26.90;;;21.60;;
61709;SDS011;47633;51.494;5.386;2022-08-19T10:26:22;28.02;;;22.38;;
61709;SDS011;47633;51.494;5.386;2022-08-19T10:28:52;30.23;;;22.98;;
61709;SDS011;47633;51.494;5.386;2022-08-19T10:31:19;29.17;;;22.52;;
61709;SDS011;47633;51.494;5.386;2022-08-19T10:33:49;27.73;;;21.90;;
61709;SDS011;47633;51.494;5.386;2022-08-19T10:36:16;26.63;;;21.48;;
61709;SDS011;47633;51.494;5.386;2022-08-19T10:38:44;29.95;;;22.33;;
61709;SDS011;47633;51.494;5.386;2022-08-19T10:41:12;27.83;;;22.48;;
61709;SDS011;47633;51.494;5.386;2022-08-19T10:43:40;24.33;;;21.48;;
61709;SDS011;47633;51.494;5.386;2022-08-19T10:46:07;24.42;;;20.92;;
61709;SDS011;47633;51.494;5.386;2022-08-19T10:48:34;26.77;;;20.50;;
61709;SDS011;47633;51.494;5.386;2022-08-19T10:51:00;26.02;;;21.25;;
61709;SDS011;47633;51.494;5.386;2022-08-19T10:53:44;26.63;;;20.65;;
61709;SDS011;47633;51.494;5.386;2022-08-19T10:56:10;25.05;;;19.13;;
61709;SDS011;47633;51.494;5.386;2022-08-19T10:58:54;23.48;;;18.30;;
61709;SDS011;47633;51.494;5.386;2022-08-19T11:01:22;21.45;;;18.02;;
61709;SDS011;47633;51.494;5.386;2022-08-19T11:03:47;22.08;;;19.10;;
61709;SDS011;47633;51.494;5.386;2022-08-19T11:06:12;22.45;;;20.05;;
61709;SDS011;47633;51.494;5.386;2022-08-19T11:08:38;22.75;;;20.30;;
61709;SDS011;47633;51.494;5.386;2022-08-19T11:11:04;21.50;;;19.25;;
61709;SDS011;47633;51.494;5.386;2022-08-19T11:13:31;21.35;;;19.00;;
61709;SDS011;47633;51.494;5.386;2022-08-19T11:16:00;23.40;;;18.92;;
61709;SDS011;47633;51.494;5.386;2022-08-19T11:18:33;20.17;;;17.95;;
61709;SDS011;47633;51.494;5.386;2022-08-19T11:21:27;21.15;;;17.92;;
61709;SDS011;47633;51.494;5.386;2022-08-19T11:23:56;19.75;;;17.08;;
61709;SDS011;47633;51.494;5.386;2022-08-19T11:26:23;21.35;;;18.30;;
61709;SDS011;47633;51.494;5.386;2022-08-19T11:28:49;21.15;;;18.08;;
61709;SDS011;47633;51.494;5.386;2022-08-19T11:31:22;20.02;;;17.55;;
61709;SDS011;47633;51.494;5.386;2022-08-19T11:33:50;21.27;;;18.02;;
61709;SDS011;47633;51.494;5.386;2022-08-19T11:36:16;21.70;;;17.63;;
61709;SDS011;47633;51.494;5.386;2022-08-19T11:38:42;20.50;;;16.75;;
61709;SDS011;47633;51.494;5.386;2022-08-19T11:41:09;21.52;;;17.55;;
61709;SDS011;47633;51.494;5.386;2022-08-19T11:43:34;19.27;;;17.02;;
61709;SDS011;47633;51.494;5.386;2022-08-19T11:46:03;18.60;;;16.60;;
61709;SDS011;47633;51.494;5.386;2022-08-19T11:48:31;21.30;;;18.08;;
61709;SDS011;47633;51.494;5.386;2022-08-19T11:50:57;22.42;;;16.02;;
61709;SDS011;47633;51.494;5.386;2022-08-19T11:53:23;18.00;;;15.73;;
61709;SDS011;47633;51.494;5.386;2022-08-19T11:55:48;17.05;;;15.27;;
61709;SDS011;47633;51.494;5.386;2022-08-19T11:58:15;18.52;;;16.33;;
61709;SDS011;47633;51.494;5.386;2022-08-19T12:00:42;20.65;;;16.10;;
61709;SDS011;47633;51.494;5.386;2022-08-19T12:03:09;18.33;;;15.82;;
61709;SDS011;47633;51.494;5.386;2022-08-19T12:05:37;17.98;;;15.15;;
61709;SDS011;47633;51.494;5.386;2022-08-19T12:08:05;17.10;;;14.85;;
61709;SDS011;47633;51.494;5.386;2022-08-19T12:10:30;19.55;;;15.23;;
61709;SDS011;47633;51.494;5.386;2022-08-19T12:12:56;17.98;;;15.75;;
61709;SDS011;47633;51.494;5.386;2022-08-19T12:15:21;16.83;;;15.00;;
61709;SDS011;47633;51.494;5.386;2022-08-19T12:17:46;16.63;;;14.43;;
61709;SDS011;47633;51.494;5.386;2022-08-19T12:20:12;16.07;;;14.23;;
61709;SDS011;47633;51.494;5.386;2022-08-19T12:22:40;17.17;;;14.98;;
61709;SDS011;47633;51.494;5.386;2022-08-19T12:25:08;20.05;;;15.50;;
61709;SDS011;47633;51.494;5.386;2022-08-19T12:27:35;19.02;;;15.48;;
61709;SDS011;47633;51.494;5.386;2022-08-19T12:30:02;19.58;;;14.68;;
61709;SDS011;47633;51.494;5.386;2022-08-19T12:32:28;19.77;;;14.48;;
61709;SDS011;47633;51.494;5.386;2022-08-19T12:34:54;17.00;;;13.73;;
61709;SDS011;47633;51.494;5.386;2022-08-19T12:37:19;16.90;;;13.07;;
61709;SDS011;47633;51.494;5.386;2022-08-19T12:39:45;17.10;;;14.25;;
61709;SDS011;47633;51.494;5.386;2022-08-19T12:42:11;18.30;;;13.55;;
61709;SDS011;47633;51.494;5.386;2022-08-19T12:44:38;15.43;;;13.77;;
61709;SDS011;47633;51.494;5.386;2022-08-19T12:47:04;18.75;;;14.27;;
61709;SDS011;47633;51.494;5.386;2022-08-19T12:49:31;15.10;;;13.25;;
61709;SDS011;47633;51.494;5.386;2022-08-19T12:51:59;15.07;;;12.60;;
61709;SDS011;47633;51.494;5.386;2022-08-19T12:54:25;16.02;;;14.23;;
61709;SDS011;47633;51.494;5.386;2022-08-19T12:56:51;14.77;;;13.18;;
61709;SDS011;47633;51.494;5.386;2022-08-19T12:59:16;15.33;;;12.97;;
61709;SDS011;47633;51.494;5.386;2022-08-19T13:01:43;19.05;;;15.27;;
61709;SDS011;47633;51.494;5.386;2022-08-19T13:04:09;18.35;;;14.00;;
61709;SDS011;47633;51.494;5.386;2022-08-19T13:06:35;20.90;;;13.57;;
61709;SDS011;47633;51.494;5.386;2022-08-19T13:09:01;17.73;;;14.35;;
61709;SDS011;47633;51.494;5.386;2022-08-19T13:11:26;16.77;;;13.88;;
61709;SDS011;47633;51.494;5.386;2022-08-19T13:13:52;16.85;;;13.43;;
61709;SDS011;47633;51.494;5.386;2022-08-19T13:16:20;15.82;;;12.02;;
61709;SDS011;47633;51.494;5.386;2022-08-19T13:18:46;14.77;;;12.85;;
61709;SDS011;47633;51.494;5.386;2022-08-19T13:21:13;15.02;;;12.10;;
61709;SDS011;47633;51.494;5.386;2022-08-19T13:23:38;14.43;;;12.25;;
61709;SDS011;47633;51.494;5.386;2022-08-19T13:26:05;12.43;;;11.02;;
61709;SDS011;47633;51.494;5.386;2022-08-19T13:28:32;12.70;;;10.88;;
61709;SDS011;47633;51.494;5.386;2022-08-19T13:31:17;14.77;;;11.90;;
61709;SDS011;47633;51.494;5.386;2022-08-19T13:34:03;17.02;;;10.75;;
61709;SDS011;47633;51.494;5.386;2022-08-19T13:36:30;17.17;;;11.65;;
61709;SDS011;47633;51.494;5.386;2022-08-19T13:38:55;11.43;;;10.23;;
61709;SDS011;47633;51.494;5.386;2022-08-19T13:41:21;14.80;;;10.35;;
61709;SDS011;47633;51.494;5.386;2022-08-19T13:43:46;11.93;;;10.53;;
61709;SDS011;47633;51.494;5.386;2022-08-19T13:46:11;14.17;;;10.53;;
61709;SDS011;47633;51.494;5.386;2022-08-19T13:48:38;12.52;;;10.65;;
61709;SDS011;47633;51.494;5.386;2022-08-19T13:51:05;14.90;;;10.30;;
61709;SDS011;47633;51.494;5.386;2022-08-19T13:53:34;12.25;;;10.20;;
61709;SDS011;47633;51.494;5.386;2022-08-19T13:56:07;11.90;;;9.77;;
61709;SDS011;47633;51.494;5.386;2022-08-19T13:58:35;10.85;;;9.65;;
61709;SDS011;47633;51.494;5.386;2022-08-19T14:01:00;13.70;;;9.63;;
61709;SDS011;47633;51.494;5.386;2022-08-19T14:03:26;13.45;;;9.32;;
61709;SDS011;47633;51.494;5.386;2022-08-19T14:05:52;10.38;;;9.10;;
61709;SDS011;47633;51.494;5.386;2022-08-19T14:08:18;10.93;;;9.15;;
61709;SDS011;47633;51.494;5.386;2022-08-19T14:10:44;11.10;;;8.93;;
61709;SDS011;47633;51.494;5.386;2022-08-19T14:13:12;10.93;;;9.23;;
61709;SDS011;47633;51.494;5.386;2022-08-19T14:15:39;10.02;;;9.00;;
61709;SDS011;47633;51.494;5.386;2022-08-19T14:18:05;15.00;;;9.70;;
61709;SDS011;47633;51.494;5.386;2022-08-19T14:20:30;11.43;;;9.23;;
61709;SDS011;47633;51.494;5.386;2022-08-19T14:22:58;9.20;;;8.20;;
61709;SDS011;47633;51.494;5.386;2022-08-19T14:25:25;9.45;;;8.18;;
61709;SDS011;47633;51.494;5.386;2022-08-19T14:27:53;10.63;;;9.32;;
61709;SDS011;47633;51.494;5.386;2022-08-19T14:30:23;10.40;;;9.40;;
61709;SDS011;47633;51.494;5.386;2022-08-19T14:32:56;9.60;;;8.48;;
61709;SDS011;47633;51.494;5.386;2022-08-19T14:35:23;11.57;;;8.00;;
61709;SDS011;47633;51.494;5.386;2022-08-19T14:37:49;9.50;;;8.15;;
61709;SDS011;47633;51.494;5.386;2022-08-19T14:40:16;10.25;;;8.10;;
61709;SDS011;47633;51.494;5.386;2022-08-19T14:42:45;9.70;;;8.50;;
61709;SDS011;47633;51.494;5.386;2022-08-19T14:45:11;10.63;;;8.05;;
61709;SDS011;47633;51.494;5.386;2022-08-19T14:47:37;8.60;;;7.60;;
61709;SDS011;47633;51.494;5.386;2022-08-19T14:50:03;10.88;;;7.93;;
61709;SDS011;47633;51.494;5.386;2022-08-19T14:52:31;9.15;;;8.18;;